Latest Conditions
At L.F.Wade Int. Airport
Recorded at 12:55 pm
Partly Cloudy
Temp.: 
28°C/83°F
Humidity: 
76%
Wind: 
SSW 14KT
or 16mph
UV Index: 
12
Island Observations
 
Observations
Sunday, June 24, 2018

Observations are in local time and taken at least once an hour, or upon the start and end of specified events such as showers and thunderstorms.

Time Sky / Weather Wind Speed/Gusts Temp. R.H. Pressure
     knots (mph)  °C (°F)  %  mb / "Hg
 12:55 Partly Cloudy  SSW 14/0 (16/0) 28(83) 76 1024 / 30.24
 11:55 Partly Cloudy  SSW 15/0 (17/0) 28(83) 75 1024 / 30.24
 10:55 Few Clouds  SSW 13/0 (15/0) 28(82) 77 1024 / 30.23
 09:55 Few Clouds  SSW 13/0 (15/0) 27(81) 77 1023 / 30.22
 08:55 Few Clouds  S 14/0 (16/0) 27(81) 80 1023 / 30.22
 07:55 Few Clouds  S 15/0 (17/0) 26(80) 83 1023 / 30.20
 06:55 Few Clouds  S 14/0 (16/0) 26(79) 85 1023 / 30.20
 05:55 Few Clouds  S 10/0 (12/0) 26(78) 88 1022 / 30.19
 04:55 Few Clouds  S 9/0 (10/0) 26(78) 89 1022 / 30.19
 03:55 Few Clouds  SSW 8/0 (9/0) 26(78) 89 1023 / 30.20
 02:55 Partly Cloudy  S 10/0 (12/0) 26(78) 88 1023 / 30.20
 01:55 Few Clouds  S 10/0 (12/0) 26(78) 88 1023 / 30.21
 00:55 Few Clouds  S 9/0 (10/0) 26(78) 90 1023 / 30.22
 23:55 Few Clouds  S 8/0 (9/0) 26(79) 89 1023 / 30.22
 22:55 Partly Cloudy Showers S 9/0 (10/0) 26(79) 89 1023 / 30.22
 21:55 Few Clouds  S 10/0 (12/0) 26(79) 87 1023 / 30.21
 20:55 Few Clouds  S 10/0 (12/0) 26(79) 85 1023 / 30.20
 19:55 Few Clouds  S 11/0 (13/0) 27(80) 85 1022 / 30.19
 18:55 Few Clouds  S 11/0 (13/0) 27(81) 84 1022 / 30.18
 18:34 Partly Cloudy  S 10/0 (12/0) 28(82) 82 1022 / 30.18
 18:22 Mostly Cloudy  S 11/0 (13/0) 28(82) 82 1022 / 30.18
 17:55 Partly Cloudy Showers S 11/0 (13/0) 27(81) 84 1022 / 30.18
 17:30 Partly Cloudy Showers S 12/0 (14/0) 27(81) 84 1022 / 30.18
 17:23 Mostly Cloudy Showers SSW 12/0 (14/0) 28(82) 83 1022 / 30.18
 16:55 Mostly Cloudy Showers S 13/0 (15/0) 28(82) 80 1022 / 30.19
 16:37 Mostly Cloudy  S 12/0 (14/0) 28(83) 80 1022 / 30.19
 15:55 Partly Cloudy  S 14/0 (16/0) 28(82) 79 1022 / 30.18
 14:55 Partly Cloudy  S 13/0 (15/0) 28(83) 79 1022 / 30.19
 13:55 Few Clouds  S 13/0 (15/0) 28(83) 78 1022 / 30.19
 12:55 Partly Cloudy  S 12/0 (14/0) 28(83) 77 1022 / 30.19
 11:55 Partly Cloudy  S 13/0 (15/0) 28(82) 72 1022 / 30.19
 10:55 Partly Cloudy  S 12/0 (14/0) 27(81) 81 1022 / 30.19
 09:55 Partly Cloudy  S 13/0 (15/0) 27(81) 81 1022 / 30.19
 08:55 Partly Cloudy  S 13/0 (15/0) 27(81) 82 1022 / 30.18
 07:55 Partly Cloudy  SSW 14/0 (16/0) 26(80) 84 1022 / 30.17
 06:55 Partly Cloudy Showers SSW 12/0 (14/0) 26(78) 85 1021 / 30.16
 05:55 Few Clouds Showers SSW 13/0 (15/0) 26(78) 87 1021 / 30.14
 04:55 Few Clouds  SSW 14/0 (16/0) 26(78) 87 1020 / 30.13
 03:55 Few Clouds Showers SSW 13/0 (15/0) 26(78) 87 1021 / 30.14
 02:55 Partly Cloudy Showers SSW 15/0 (17/0) 26(78) 88 1020 / 30.13
 02:04 Partly Cloudy  S 15/0 (17/0) 26(78) 89 1021 / 30.14
 01:55 Mostly Cloudy  S 14/0 (16/0) 26(78) 89 1021 / 30.14
 01:38 Mostly Cloudy  SSW 15/0 (17/0) 26(78) 88 1021 / 30.14
 00:55 Few Clouds  S 15/0 (17/0) 26(78) 86 1021 / 30.15
 23:55 Mostly Cloudy  S 15/0 (17/0) 26(79) 86 1021 / 30.15
 22:55 Few Clouds  S 15/0 (17/0) 26(79) 89 1021 / 30.14
 21:55 Few Clouds  SSW 13/0 (15/0) 26(79) 89 1020 / 30.13
 20:55 Few Clouds  S 13/0 (15/0) 26(79) 87 1020 / 30.11
 19:55 Few Clouds  SSW 11/0 (13/0) 26(80) 85 1019 / 30.10
 18:55 Few Clouds  SSW 12/0 (14/0) 27(80) 83 1019 / 30.09
 17:55 Partly Cloudy  SSW 12/0 (14/0) 28(82) 81 1019 / 30.08
 16:55 Partly Cloudy  SSW 13/0 (15/0) 28(83) 77 1019 / 30.09
 15:55 Partly Cloudy  SSW 12/0 (14/0) 28(83) 78 1019 / 30.09
 14:55 Partly Cloudy  SSW 14/0 (16/0) 28(83) 78 1019 / 30.10
 13:55 Partly Cloudy  SSW 13/0 (15/0) 28(82) 75 1020 / 30.11
 12:55 Few Clouds  SSW 13/0 (15/0) 28(82) 77 1019 / 30.10
 11:55 Partly Cloudy  SSW 14/0 (16/0) 28(82) 75 1019 / 30.09
 10:55 Few Clouds  SSW 14/0 (16/0) 28(82) 74 1019 / 30.08
 09:55 Few Clouds  SSW 14/0 (16/0) 27(81) 74 1018 / 30.07
 08:55 Partly Cloudy  SW 12/0 (14/0) 27(80) 73 1018 / 30.07
 07:55 Partly Cloudy  SSW 13/0 (15/0) 26(78) 83 1018 / 30.06
 06:55 Partly Cloudy  SSW 13/0 (15/0) 25(78) 85 1017 / 30.04
 05:55 Partly Cloudy  SSW 13/0 (15/0) 25(77) 85 1017 / 30.02
 04:55 Few Clouds  SW 11/0 (13/0) 25(77) 86 1016 / 30.01
 03:55 Few Clouds  SW 11/0 (13/0) 25(77) 86 1017 / 30.02
 02:55 Few Clouds  SW 11/0 (13/0) 25(77) 84 1016 / 30.01
 01:55 Few Clouds  SW 12/0 (14/0) 25(77) 86 1017 / 30.02
 00:55 Few Clouds  SW 12/0 (14/0) 25(78) 84 1017 / 30.02
 23:55 Few Clouds  SSW 12/0 (14/0) 25(78) 86 1017 / 30.02
 22:55 Few Clouds  SW 10/0 (12/0) 26(78) 87 1017 / 30.02
 21:55 Few Clouds  SW 9/0 (10/0) 26(78) 86 1017 / 30.02
 20:55 Few Clouds  SW 11/0 (13/0) 26(79) 80 1016 / 30.00
 19:55 Few Clouds  SW 13/0 (15/0) 27(80) 76 1016 / 30.00
 18:55 Few Clouds  SW 15/0 (17/0) 27(81) 76 1015 / 29.98
 17:55 Few Clouds  SSW 15/0 (17/0) 27(81) 73 1015 / 29.97
 16:55 Few Clouds  SSW 16/0 (18/0) 27(81) 73 1015 / 29.98
 15:55 Few Clouds  SSW 18/0 (21/0) 28(82) 72 1015 / 29.98
 14:55 Few Clouds  SSW 19/0 (22/0) 28(82) 71 1016 / 29.99
 13:55 Few Clouds  SSW 19/0 (22/0) 28(83) 72 1016 / 29.99
 12:55 Few Clouds  SSW 18/0 (21/0) 28(82) 70 1016 / 30.00
 11:55 Few Clouds  SW 18/0 (21/0) 28(82) 70 1016 / 29.99
 10:55 Few Clouds  SW 18/0 (21/0) 28(82) 69 1016 / 30.00
 09:55 Few Clouds  SSW 18/0 (21/0) 27(80) 74 1016 / 29.99
 08:55 Few Clouds  SSW 18/0 (21/0) 26(79) 77 1016 / 29.99
 07:55 Few Clouds  SW 18/0 (21/0) 26(78) 82 1016 / 29.99
 06:55 Mostly Cloudy  SW 16/0 (18/0) 25(77) 84 1015 / 29.98
 05:55 Mostly Cloudy Showers SW 15/0 (17/0) 25(77) 86 1015 / 29.97
 04:55 Mostly Cloudy Showers SW 18/0 (21/0) 25(78) 83 1014 / 29.95
 04:18 Mostly Cloudy Showers WSW 15/0 (17/0) 25(78) 85 1014 / 29.95
 03:55 Mostly Cloudy Showers SW 15/0 (17/0) 26(78) 83 1014 / 29.95
 03:38 Mostly Cloudy Showers WSW 15/0 (17/0) 25(78) 84 1014 / 29.95
 03:31 Mostly Cloudy Showers WSW 17/0 (20/0) 25(78) 84 1014 / 29.95
 02:55 Partly Cloudy  SW 15/0 (17/0) 26(78) 83 1015 / 29.96
 01:55 Few Clouds  SW 15/0 (17/0) 25(78) 85 1014 / 29.95
 00:55 Few Clouds  SW 12/0 (14/0) 26(78) 82 1015 / 29.97
 23:55 Partly Cloudy  SW 13/0 (15/0) 26(78) 81 1015 / 29.98
 22:55 Mostly Cloudy  SW 11/0 (13/0) 26(78) 79 1015 / 29.98
 21:55 Mostly Cloudy  SW 12/0 (14/0) 26(79) 78 1015 / 29.98
 20:55 Mostly Cloudy  SW 14/0 (16/0) 26(79) 77 1015 / 29.96
 19:55 Mostly Cloudy  SW 16/0 (18/0) 26(80) 76 1014 / 29.95
Island AWOS